SPTN/TCQ METAR and TAF weather

Enter ICAO airport designator
Station Type Date Time Source
SPTN METAR 2019/05/21 21:00 UTC NOAA

SPTN 212100Z 22009KT 9999 SCT030 SCT230 17/12 Q1015 RMK PP000


Station Type Date Time Source
SPTN Decoded METAR 2019/05/21 21:00 UTC NOAA

Tacna, Peru (SPTN) 18-04S 070-18W 469M
May 21, 2019 - 05:00 PM EDT / 2019.05.21 2100 UTC
Wind: from the SW (220 degrees) at 10 MPH (9 KT):0
Visibility: greater than 7 mile(s):0
Sky conditions: partly cloudy
Temperature: 62 F (17 C)
Dew Point: 53 F (12 C)
Relative Humidity: 72%
Pressure (altimeter): 29.97 in. Hg (1015 hPa)
ob: SPTN 212100Z 22009KT 9999 SCT030 SCT230 17/12 Q1015 RMK PP000
cycle: 21

Station Type Date Time Source
SPTN TAF 2019/05/21 18:33 UTC NOAA

TAF SPTN 211700Z 2118/2218 25008KT 9999 BKN030 TX19/2119Z TN13/2210Z
TEMPO 2119/2122 SCT030
FM212300 22005KT 8000 OVC022
FM221530 23005KT 9999 SCT030

Example: see airport list